Main page
METAR-TAF:

METAR-TAF

Airports :

Yacuiba Airport

Yacuíba, Bolivia

latitude: 21-57S, longitude: 063-39W, elevation: 645 m

Current weather observation

The report was made 53 minutes ago, at 17:00 UTC
Wind 5 kt from the South/Southwest
Temperature 16°C
Humidity 88%
Pressure 1013 hPa
Visibility 10 km or more
Few clouds at a height of 1800 ft
Overcast at a height of 7000 ft

METAR: SLYA 231700Z 21005KT 9999 FEW018 OVC070 16/14 Q1013

Time: 13:53 (17:53 UTC)

Forecast

The report was made 37 hours and 53 minutes ago, at 04:00 UTC
Forecast valid from 22 at 06 UTC to 23 at 06 UTC
Wind kt from the North
Visibility 10 km or more
Scattered clouds at a height of 1500 ft
Scattered clouds at a height of 7000 ft

TAF: SLYA 220400Z 2206/2306 00000KT 9999 SCT015 SCT070 TX16/2219Z TN10/2210Z

Weather observations and forecasts of more than 4000 airports (METAR and TAF reports).

The available stations are represented by yellow and red dots on the map.

Hover mouse over dot to see the name of the station.

Then click to see weather observations and forecasts.

To change the map : click on the green buttons with a black cross to zoom in, on the green button with a dash to zoom out, or on the green arrows for adjacent maps.


METAR-TAF: